createdAt,value
2023-05-21T00:02:59.287Z,14.30
2023-05-21T00:06:04.093Z,14.24
2023-05-21T00:09:12.951Z,14.11
2023-05-21T00:12:16.964Z,14.12
2023-05-21T00:15:21.171Z,14.11
2023-05-21T00:18:26.679Z,14.10
2023-05-21T00:21:31.857Z,14.11
2023-05-21T00:24:35.296Z,14.10
2023-05-21T00:27:39.035Z,14.13
2023-05-21T00:30:43.346Z,14.19
2023-05-21T00:33:48.507Z,14.20
2023-05-21T00:36:53.536Z,14.07
2023-05-21T00:39:58.412Z,14.12
2023-05-21T00:43:02.242Z,14.24
2023-05-21T00:46:07.104Z,14.12
2023-05-21T00:49:12.417Z,14.00
2023-05-21T00:52:20.404Z,14.09
2023-05-21T00:55:24.561Z,14.11
2023-05-21T00:58:28.607Z,14.02
2023-05-21T01:01:37.137Z,14.07
2023-05-21T01:04:42.567Z,14.08
2023-05-21T01:07:46.903Z,14.02
2023-05-21T01:10:51.130Z,14.09
2023-05-21T01:13:54.991Z,14.08
2023-05-21T01:16:59.772Z,13.94
2023-05-21T01:20:10.401Z,13.92
2023-05-21T01:23:16.015Z,13.80
2023-05-21T01:26:19.908Z,13.81
2023-05-21T01:29:24.475Z,13.91
2023-05-21T01:32:36.652Z,13.79
2023-05-21T01:35:46.529Z,13.85
2023-05-21T01:39:02.805Z,13.85
2023-05-21T01:42:10.548Z,13.87
2023-05-21T01:45:17.087Z,13.90
2023-05-21T01:48:21.140Z,13.80
2023-05-21T01:51:26.420Z,13.66
2023-05-21T01:54:31.341Z,13.62
2023-05-21T01:57:37.963Z,13.56
2023-05-21T02:00:42.351Z,13.44
2023-05-21T02:03:46.152Z,13.44
2023-05-21T02:06:50.080Z,13.46
2023-05-21T02:09:55.464Z,13.42
2023-05-21T02:12:59.456Z,13.53
2023-05-21T02:16:03.074Z,13.54
2023-05-21T02:19:06.986Z,13.54
2023-05-21T02:22:10.781Z,13.44
2023-05-21T02:25:18.522Z,13.49
2023-05-21T02:28:22.509Z,13.49
2023-05-21T02:31:26.460Z,13.62
2023-05-21T02:34:31.104Z,13.56
2023-05-21T02:37:35.161Z,13.50
2023-05-21T02:40:40.597Z,13.52
2023-05-21T02:43:44.879Z,13.54
2023-05-21T02:46:48.685Z,13.46
2023-05-21T02:49:54.711Z,13.40
2023-05-21T02:52:59.845Z,13.39
2023-05-21T02:56:06.053Z,13.35
2023-05-21T02:59:09.759Z,13.38
2023-05-21T03:02:13.725Z,13.47
2023-05-21T03:05:17.448Z,13.41
2023-05-21T03:08:21.608Z,13.40
2023-05-21T03:11:26.567Z,13.39
2023-05-21T03:14:30.351Z,13.42
2023-05-21T03:17:35.280Z,13.30
2023-05-21T03:20:43.836Z,13.29
2023-05-21T03:23:47.937Z,13.28
2023-05-21T03:26:52.988Z,13.21
2023-05-21T03:29:56.886Z,13.13
2023-05-21T03:33:01.250Z,13.17
2023-05-21T03:36:05.152Z,13.20
2023-05-21T03:39:12.451Z,13.41
2023-05-21T03:42:17.771Z,13.42
2023-05-21T03:45:26.392Z,13.49
2023-05-21T03:48:45.141Z,13.53
2023-05-21T03:51:52.297Z,13.68
2023-05-21T03:54:57.297Z,13.70
2023-05-21T03:58:02.406Z,13.87
2023-05-21T04:01:06.481Z,13.99
2023-05-21T04:04:10.490Z,14.11
2023-05-21T04:07:15.951Z,14.15
2023-05-21T04:10:19.644Z,14.28
2023-05-21T04:13:24.921Z,14.39
2023-05-21T04:16:28.556Z,14.60
2023-05-21T04:19:32.610Z,14.70
2023-05-21T04:22:36.855Z,14.75
2023-05-21T04:25:40.702Z,14.93
2023-05-21T04:28:46.067Z,14.94
2023-05-21T04:31:50.855Z,15.10
2023-05-21T04:34:54.739Z,15.18
2023-05-21T04:37:58.439Z,15.31
2023-05-21T04:41:03.967Z,15.46
2023-05-21T04:44:10.616Z,15.61
2023-05-21T04:47:15.081Z,15.76
2023-05-21T04:50:20.453Z,15.88
2023-05-21T04:53:26.327Z,16.00
2023-05-21T04:56:30.005Z,16.06
2023-05-21T04:59:35.544Z,16.13
2023-05-21T05:02:38.942Z,16.34
2023-05-21T05:05:42.574Z,16.36
2023-05-21T05:08:46.611Z,16.64
2023-05-21T05:11:51.784Z,16.65
2023-05-21T05:14:56.828Z,16.75
2023-05-21T05:18:00.528Z,16.95
2023-05-21T05:21:05.349Z,17.25
2023-05-21T05:24:08.837Z,17.25
2023-05-21T05:27:12.300Z,17.40
2023-05-21T05:30:17.395Z,17.62
2023-05-21T05:33:22.926Z,17.85
2023-05-21T05:36:27.261Z,17.77
2023-05-21T05:39:31.627Z,18.00
2023-05-21T05:42:35.055Z,18.01
2023-05-21T05:45:46.683Z,18.19
2023-05-21T05:48:51.643Z,18.21
2023-05-21T05:51:55.337Z,18.54
2023-05-21T05:54:58.795Z,18.51
2023-05-21T05:58:02.333Z,18.65
2023-05-21T06:01:07.496Z,18.91
2023-05-21T06:04:11.426Z,19.18
2023-05-21T06:07:15.200Z,19.50
2023-05-21T06:10:18.908Z,19.35
2023-05-21T06:13:22.551Z,19.70
2023-05-21T06:16:27.708Z,19.89
2023-05-21T06:19:31.736Z,19.73
2023-05-21T06:22:37.150Z,20.18
2023-05-21T06:25:42.721Z,20.08
2023-05-21T06:28:46.318Z,20.32
2023-05-21T06:31:51.791Z,20.47
2023-05-21T06:34:55.310Z,20.08
2023-05-21T06:37:59.347Z,20.12
2023-05-21T06:41:04.027Z,20.42
2023-05-21T06:44:25.984Z,20.84
2023-05-21T06:47:42.389Z,20.86
2023-05-21T06:50:46.080Z,21.22
2023-05-21T06:53:49.681Z,21.33
2023-05-21T06:57:02.031Z,21.69
2023-05-21T07:00:09.437Z,21.20
2023-05-21T07:03:16.411Z,21.50
2023-05-21T07:06:20.439Z,21.15
2023-05-21T07:09:24.356Z,21.18
2023-05-21T07:12:28.509Z,21.25
2023-05-21T07:15:32.081Z,21.57
2023-05-21T07:18:37.949Z,21.72
2023-05-21T07:21:41.588Z,22.31
2023-05-21T07:24:45.343Z,21.93
2023-05-21T07:27:48.944Z,21.79
2023-05-21T07:30:52.752Z,21.94
2023-05-21T07:34:05.136Z,21.89
2023-05-21T07:37:09.063Z,21.84
2023-05-21T07:40:13.731Z,22.27
2023-05-21T07:43:18.965Z,22.08
2023-05-21T07:46:22.719Z,22.07
2023-05-21T07:49:31.973Z,22.17
2023-05-21T07:52:36.406Z,22.02
2023-05-21T07:55:47.615Z,22.18
2023-05-21T07:58:54.395Z,22.32
2023-05-21T08:01:58.026Z,22.67
2023-05-21T08:05:03.838Z,22.91
2023-05-21T08:08:07.510Z,22.82
2023-05-21T08:11:14.332Z,22.74
2023-05-21T08:14:18.896Z,23.12
2023-05-21T08:17:22.536Z,23.03
2023-05-21T08:20:29.174Z,23.21
2023-05-21T08:23:33.274Z,23.31
2023-05-21T08:26:38.021Z,23.69
2023-05-21T08:29:41.712Z,23.35
2023-05-21T08:32:45.434Z,23.64
2023-05-21T08:35:51.028Z,23.34
2023-05-21T08:38:59.195Z,23.13
2023-05-21T08:42:22.740Z,23.15
2023-05-21T08:45:43.108Z,23.21
2023-05-21T08:48:48.918Z,23.46
2023-05-21T08:51:55.168Z,23.61
2023-05-21T08:54:59.842Z,23.44
2023-05-21T08:58:06.470Z,23.53
2023-05-21T09:01:12.586Z,23.22
2023-05-21T09:04:21.916Z,23.19
2023-05-21T09:07:32.500Z,23.70
2023-05-21T09:11:08.366Z,23.66
2023-05-21T09:14:20.462Z,23.58
2023-05-21T09:17:47.814Z,23.23
2023-05-21T09:21:26.489Z,23.41
2023-05-21T09:24:36.340Z,23.77
2023-05-21T09:27:41.596Z,23.83
2023-05-21T09:30:48.987Z,23.63
2023-05-21T09:33:52.814Z,23.77
2023-05-21T09:36:59.045Z,24.20
2023-05-21T09:40:11.625Z,24.00
2023-05-21T09:43:16.610Z,23.72
2023-05-21T09:46:23.053Z,23.94
2023-05-21T09:49:28.429Z,23.61
2023-05-21T09:52:33.687Z,23.99
2023-05-21T09:55:38.566Z,23.88
2023-05-21T09:58:42.253Z,24.09
2023-05-21T10:01:45.935Z,23.97
2023-05-21T10:04:52.469Z,24.24
2023-05-21T10:08:01.219Z,23.80
2023-05-21T10:11:07.786Z,23.98
2023-05-21T10:14:16.265Z,23.99
2023-05-21T10:17:20.771Z,23.98
2023-05-21T10:20:24.758Z,24.35
2023-05-21T10:23:30.416Z,24.42
2023-05-21T10:26:35.899Z,24.72
2023-05-21T10:29:41.553Z,24.46
2023-05-21T10:32:46.730Z,24.29
2023-05-21T10:35:53.339Z,24.20
2023-05-21T10:38:58.442Z,24.15
2023-05-21T10:42:13.932Z,24.82
2023-05-21T10:45:25.169Z,24.77
2023-05-21T10:48:49.288Z,25.18
2023-05-21T10:52:05.102Z,24.84
2023-05-21T10:55:23.614Z,25.33
2023-05-21T10:58:49.936Z,24.82
2023-05-21T11:01:55.426Z,24.65
2023-05-21T11:05:04.289Z,25.11
2023-05-21T11:08:22.618Z,25.11
2023-05-21T11:11:46.546Z,25.49
2023-05-21T11:14:59.418Z,25.66
2023-05-21T11:18:03.013Z,25.60
2023-05-21T11:21:07.295Z,25.69
2023-05-21T11:24:11.301Z,25.41
2023-05-21T11:27:14.882Z,26.21
2023-05-21T11:30:20.984Z,25.65
2023-05-21T11:33:24.677Z,25.60
2023-05-21T11:36:28.218Z,25.68
2023-05-21T11:39:31.750Z,25.29
2023-05-21T11:42:36.448Z,25.73
2023-05-21T11:45:46.807Z,25.36
2023-05-21T11:48:52.260Z,25.46
2023-05-21T11:51:55.851Z,25.85
2023-05-21T11:55:00.166Z,25.66
2023-05-21T11:58:04.711Z,25.76
2023-05-21T12:01:09.634Z,25.72
2023-05-21T12:04:13.642Z,25.83
2023-05-21T12:07:19.411Z,26.13
2023-05-21T12:10:24.240Z,26.34
2023-05-21T12:13:28.126Z,25.86
2023-05-21T12:16:33.080Z,26.52
2023-05-21T12:19:38.270Z,26.21
2023-05-21T12:22:44.066Z,26.16
2023-05-21T12:25:48.078Z,26.39
2023-05-21T12:28:51.686Z,26.36
2023-05-21T12:32:00.378Z,26.69
2023-05-21T12:35:04.161Z,26.29
2023-05-21T12:38:09.896Z,25.97
2023-05-21T12:41:13.465Z,25.80
2023-05-21T12:44:16.982Z,26.60
2023-05-21T12:47:25.708Z,26.67
2023-05-21T12:50:29.548Z,27.51
2023-05-21T12:53:38.287Z,26.77
2023-05-21T12:56:48.328Z,26.29
2023-05-21T12:59:53.579Z,26.88
2023-05-21T13:03:00.345Z,26.54
2023-05-21T13:06:04.095Z,27.12
2023-05-21T13:09:08.262Z,26.57
2023-05-21T13:12:12.809Z,26.90
2023-05-21T13:15:16.387Z,26.89
2023-05-21T13:18:22.152Z,26.73
2023-05-21T13:21:25.688Z,26.75
2023-05-21T13:24:29.255Z,26.89
2023-05-21T13:27:32.979Z,26.91
2023-05-21T13:30:37.218Z,26.59
2023-05-21T13:33:42.196Z,26.55
2023-05-21T13:36:45.811Z,26.78
2023-05-21T13:39:49.651Z,26.64
2023-05-21T13:42:53.582Z,26.96
2023-05-21T13:45:56.993Z,26.79
2023-05-21T13:49:03.619Z,26.45
2023-05-21T13:52:08.598Z,26.40
2023-05-21T13:55:12.189Z,26.55
2023-05-21T13:58:15.606Z,26.74
2023-05-21T14:01:19.249Z,26.15
2023-05-21T14:04:24.304Z,26.39
2023-05-21T14:07:27.893Z,26.36
2023-05-21T14:10:31.821Z,26.09
2023-05-21T14:13:35.388Z,26.39
2023-05-21T14:16:38.816Z,26.00
2023-05-21T14:19:43.885Z,26.49
2023-05-21T14:22:47.629Z,26.29
2023-05-21T14:25:51.056Z,25.97
2023-05-21T14:28:54.547Z,25.91
2023-05-21T14:31:58.589Z,25.84
2023-05-21T14:35:03.527Z,25.79
2023-05-21T14:38:07.124Z,25.94
2023-05-21T14:41:10.978Z,25.74
2023-05-21T14:44:14.432Z,25.82
2023-05-21T14:47:17.968Z,25.61
2023-05-21T14:50:22.818Z,25.48
2023-05-21T14:53:26.388Z,25.66
2023-05-21T14:56:29.999Z,25.83
2023-05-21T14:59:33.439Z,25.65
2023-05-21T15:02:37.476Z,25.28
2023-05-21T15:05:42.458Z,25.12
2023-05-21T15:08:45.867Z,25.08
2023-05-21T15:11:52.680Z,25.03
2023-05-21T15:14:56.472Z,25.17
2023-05-21T15:18:00.005Z,25.06
2023-05-21T15:21:06.302Z,25.10
2023-05-21T15:24:09.910Z,25.42
2023-05-21T15:27:13.392Z,24.88
2023-05-21T15:30:16.887Z,24.60
2023-05-21T15:33:20.355Z,25.08
2023-05-21T15:36:26.945Z,24.90
2023-05-21T15:39:31.467Z,24.73
2023-05-21T15:42:34.900Z,24.61
2023-05-21T15:45:39.290Z,24.45
2023-05-21T15:48:42.931Z,24.66
2023-05-21T15:51:48.940Z,24.17
2023-05-21T15:54:52.362Z,23.94
2023-05-21T15:57:55.967Z,23.90
2023-05-21T16:00:59.721Z,23.63
2023-05-21T16:04:04.121Z,23.65
2023-05-21T16:07:09.061Z,23.44
2023-05-21T16:10:12.722Z,23.24
2023-05-21T16:13:17.478Z,23.16
2023-05-21T16:16:23.131Z,23.05
2023-05-21T16:19:28.170Z,22.88
2023-05-21T16:22:33.091Z,23.09
2023-05-21T16:25:36.862Z,23.20
2023-05-21T16:28:40.781Z,23.03
2023-05-21T16:31:44.222Z,22.75
2023-05-21T16:34:48.156Z,22.68
2023-05-21T16:37:53.183Z,22.67
2023-05-21T16:40:57.089Z,22.68
2023-05-21T16:44:00.970Z,22.61
2023-05-21T16:47:04.543Z,22.63
2023-05-21T16:50:09.872Z,22.48
2023-05-21T16:53:14.883Z,22.35
2023-05-21T16:56:18.367Z,22.34
2023-05-21T16:59:21.970Z,22.24
2023-05-21T17:02:26.075Z,22.23
2023-05-21T17:05:30.033Z,22.22
2023-05-21T17:08:34.875Z,22.21
2023-05-21T17:11:38.571Z,21.94
2023-05-21T17:14:41.936Z,21.63
2023-05-21T17:17:45.544Z,21.46
2023-05-21T17:20:49.025Z,21.43
2023-05-21T17:23:53.889Z,21.21
2023-05-21T17:26:57.204Z,21.17
2023-05-21T17:30:00.957Z,21.12
2023-05-21T17:33:04.604Z,20.98
2023-05-21T17:36:08.337Z,20.91
2023-05-21T17:39:13.153Z,20.80
2023-05-21T17:42:20.119Z,20.75
2023-05-21T17:45:23.658Z,20.81
2023-05-21T17:48:27.037Z,20.63
2023-05-21T17:51:31.594Z,20.70
2023-05-21T17:54:36.509Z,20.49
2023-05-21T17:57:39.881Z,20.35
2023-05-21T18:00:43.303Z,20.24
2023-05-21T18:03:46.872Z,20.15
2023-05-21T18:06:51.716Z,19.97
2023-05-21T18:09:58.877Z,19.84
2023-05-21T18:13:02.359Z,19.97
2023-05-21T18:16:06.604Z,19.88
2023-05-21T18:19:10.612Z,19.90
2023-05-21T18:22:14.311Z,19.83
2023-05-21T18:25:19.256Z,19.76
2023-05-21T18:28:22.711Z,19.61
2023-05-21T18:31:26.599Z,19.40
2023-05-21T18:34:30.195Z,19.20
2023-05-21T18:37:33.818Z,19.33
2023-05-21T18:40:39.062Z,19.25
2023-05-21T18:43:42.861Z,19.24
2023-05-21T18:46:46.533Z,19.19
2023-05-21T18:49:50.106Z,19.17
2023-05-21T18:52:55.534Z,18.99
2023-05-21T18:56:00.760Z,18.80
2023-05-21T18:59:04.236Z,18.69
2023-05-21T19:02:07.973Z,18.58
2023-05-21T19:05:12.109Z,18.46
2023-05-21T19:08:17.355Z,18.26
2023-05-21T19:11:23.704Z,18.26
2023-05-21T19:14:27.315Z,18.33
2023-05-21T19:17:30.935Z,18.18
2023-05-21T19:20:37.091Z,18.17
2023-05-21T19:23:51.845Z,18.03
2023-05-21T19:26:57.911Z,18.04
2023-05-21T19:30:01.772Z,17.93
2023-05-21T19:33:06.492Z,17.92
2023-05-21T19:36:10.033Z,17.85
2023-05-21T19:39:13.862Z,17.67
2023-05-21T19:42:21.540Z,17.50
2023-05-21T19:45:25.621Z,17.38
2023-05-21T19:48:29.208Z,17.29
2023-05-21T19:51:33.104Z,17.27
2023-05-21T19:54:36.993Z,17.22
2023-05-21T19:57:41.903Z,17.34
2023-05-21T20:00:47.433Z,17.22
2023-05-21T20:03:51.192Z,17.14
2023-05-21T20:06:54.659Z,16.94
2023-05-21T20:09:58.362Z,16.88
2023-05-21T20:13:03.379Z,16.88
2023-05-21T20:16:07.760Z,16.88
2023-05-21T20:19:11.428Z,16.89
2023-05-21T20:22:15.695Z,16.75
2023-05-21T20:25:19.480Z,16.62
2023-05-21T20:28:24.467Z,16.53
2023-05-21T20:31:28.580Z,16.49
2023-05-21T20:34:32.165Z,16.45
2023-05-21T20:37:36.931Z,16.49
2023-05-21T20:40:40.505Z,16.28
2023-05-21T20:43:46.200Z,16.19
2023-05-21T20:46:50.304Z,16.04
2023-05-21T20:49:54.289Z,16.12
2023-05-21T20:52:58.147Z,15.98
2023-05-21T20:56:02.538Z,15.79
2023-05-21T20:59:09.275Z,15.91
2023-05-21T21:02:14.505Z,15.85
2023-05-21T21:05:20.146Z,15.82
2023-05-21T21:08:28.238Z,15.86
2023-05-21T21:11:32.535Z,15.76
2023-05-21T21:14:37.444Z,15.72
2023-05-21T21:17:41.348Z,15.77
2023-05-21T21:20:49.701Z,15.52
2023-05-21T21:23:53.891Z,15.68
2023-05-21T21:26:57.274Z,15.57
2023-05-21T21:30:02.217Z,15.62
2023-05-21T21:33:06.390Z,15.54
2023-05-21T21:36:12.263Z,15.35
2023-05-21T21:39:18.082Z,15.39
2023-05-21T21:42:21.759Z,15.08
2023-05-21T21:45:26.841Z,15.05
2023-05-21T21:48:30.403Z,14.93
2023-05-21T21:51:35.314Z,15.06
2023-05-21T21:54:38.918Z,15.06
2023-05-21T21:57:42.484Z,15.07
2023-05-21T22:00:47.593Z,14.94
2023-05-21T22:03:51.264Z,14.92
2023-05-21T22:06:54.965Z,14.95
2023-05-21T22:09:58.542Z,15.07
2023-05-21T22:13:02.899Z,14.89
2023-05-21T22:16:08.623Z,14.85
2023-05-21T22:19:12.996Z,14.93
2023-05-21T22:22:16.623Z,14.79
2023-05-21T22:25:20.357Z,15.02
2023-05-21T22:28:23.689Z,14.89
2023-05-21T22:31:28.780Z,14.96
2023-05-21T22:34:32.278Z,14.97
2023-05-21T22:37:37.483Z,15.06
2023-05-21T22:40:41.138Z,14.97
2023-05-21T22:43:44.782Z,14.83
2023-05-21T22:46:49.863Z,14.80
2023-05-21T22:49:53.457Z,14.67
2023-05-21T22:52:57.146Z,14.52
2023-05-21T22:56:01.251Z,14.40
2023-05-21T22:59:04.743Z,14.56
2023-05-21T23:02:09.715Z,14.39
2023-05-21T23:05:13.510Z,14.30
2023-05-21T23:08:17.213Z,14.34
2023-05-21T23:11:21.033Z,14.26
2023-05-21T23:14:24.696Z,14.30
2023-05-21T23:17:29.703Z,14.27
2023-05-21T23:20:33.858Z,14.15
2023-05-21T23:23:37.322Z,14.15
2023-05-21T23:26:41.031Z,14.11
2023-05-21T23:29:44.504Z,14.01
2023-05-21T23:32:49.583Z,14.08
2023-05-21T23:35:53.302Z,13.97
2023-05-21T23:38:56.810Z,14.04
2023-05-21T23:42:01.413Z,13.92
2023-05-21T23:45:05.669Z,13.75
2023-05-21T23:48:12.003Z,13.95
2023-05-21T23:51:15.784Z,13.87
2023-05-21T23:54:19.365Z,13.60
2023-05-21T23:57:23.525Z,13.60
